Bookmark and Share
Track history (hours):
 

Fure West

Last reported at 2014-Apr-16 10:18 UTC. Time now 2014-Apr-19 19:46 UTC.
Position N 55°42' E 015°60'.

Length 144 m; draft 9 m.

Type: Tanker. MMSI: 231775000.

NotesDate/timePositionNaut miles runAvg speedWind from/ knotsBaromVisibWave heightAir tempDewpointWater temp
2014-Apr-16 10:18N 55°42' E 015°60'1012.2
2014-Apr-16 09:28N 55°39' E 015°42'1112.2
2014-Apr-16 08:33N 55°35' E 015°24'1211.6
2014-Apr-16 07:33N 55°30' E 015°05'1312.8
2014-Apr-16 06:33N 55°25' E 014°45'1211.8
2014-Apr-16 05:33N 55°16' E 014°30'1211.8
2014-Apr-16 04:33N 55°07' E 014°17'1212.1
2014-Apr-16 03:33N 54°60' E 014°01'1212.4
2014-Apr-16 02:33N 54°56' E 013°40'1212.3
2014-Apr-16 01:33N 54°52' E 013°20'1212.5
2014-Apr-16 00:33N 54°48' E 012°59'1212.2
2014-Apr-15 23:33N 54°43' E 012°40'1312.6
2014-Apr-15 22:33N 54°36' E 012°22'1212.3
2014-Apr-15 21:33N 54°25' E 012°12'1212.0
2014-Apr-15 20:33N 54°25' E 011°51'1211.7
2014-Apr-15 19:33N 54°29' E 011°32'1212.4
2014-Apr-15 18:33N 54°34' E 011°13'59 6.6
2014-Apr-15 09:33N 54°15' E 009°37'7 6.9
2014-Apr-15 08:34N 54°11' E 009°27'5 5.0
2014-Apr-15 07:33N 54°08' E 009°20'6 6.2
2014-Apr-15 06:34N 54°02' E 009°18'7 6.8
2014-Apr-15 05:34N 53°56' E 009°13'5 2.2
2014-Apr-15 03:32N 53°53' E 009°06'0 0.0
2014-Apr-15 02:32N 53°53' E 009°06'0 0.0
2014-Apr-15 01:34N 53°53' E 009°06'5 5.1
2014-Apr-15 00:34N 53°51' E 008°59'1111.4
2014-Apr-14 23:34N 53°55' E 008°41'1211.9
2014-Apr-14 22:34N 53°59' E 008°22'1110.9
2014-Apr-14 21:33N 53°60' E 008°03'1010.3
2014-Apr-14 20:34N 54°05' E 007°48'1010.5
2014-Apr-14 19:33N 54°09' E 007°32'1010.4
2014-Apr-14 18:34N 54°09' E 007°14'1010.3
2014-Apr-14 17:33N 54°09' E 006°56'171 8.8
2014-Apr-13 22:10N 52°13' E 003°26'911.5
2014-Apr-13 21:26N 52°07' E 003°36'1112.1
2014-Apr-13 20:33N 52°03' E 003°52'1010.2
2014-Apr-13 19:33N 51°57' E 004°05'0 0.0
2014-Apr-12 11:06N 51°57' E 004°06'0 0.3
2014-Apr-12 10:33N 51°57' E 004°05'7 7.1
2014-Apr-12 09:33N 52°00' E 003°55'6 5.8
2014-Apr-12 08:31N 51°56' E 003°49'0 0.1
2014-Apr-12 07:19N 51°55' E 003°49'0 0.0
2014-Apr-12 06:31N 51°55' E 003°49'0 0.0
2014-Apr-12 05:25N 51°55' E 003°49'0 0.0
2014-Apr-12 04:31N 51°55' E 003°49'0 0.1
2014-Apr-12 03:22N 51°56' E 003°49'0 0.0
2014-Apr-12 02:22N 51°56' E 003°49'0 0.0
2014-Apr-12 01:31N 51°56' E 003°49'0 0.0
2014-Apr-12 00:31N 51°56' E 003°49'0 0.0
2014-Apr-11 23:25N 51°56' E 003°49'0 0.1
2014-Apr-11 22:31N 51°55' E 003°49'0 0.0
2014-Apr-11 21:31N 51°55' E 003°49'0 0.0
2014-Apr-11 20:28N 51°55' E 003°49'0 0.0
2014-Apr-11 19:31N 51°55' E 003°49'0 0.0
2014-Apr-11 18:25N 51°55' E 003°49'0 0.0
2014-Apr-11 17:33N 51°55' E 003°49'0 0.0
2014-Apr-11 16:34N 51°55' E 003°49'6 6.5
2014-Apr-11 15:33N 51°58' E 003°39'1110.8
2014-Apr-11 14:33N 51°53' E 003°23'4 4.1
2014-Apr-11 13:31N 51°49' E 003°22'0 0.0
2014-Apr-11 12:31N 51°49' E 003°22'0 0.0
2014-Apr-11 11:28N 51°49' E 003°22'0 0.0
2014-Apr-11 10:16N 51°49' E 003°22'0 0.1
2014-Apr-11 09:19N 51°49' E 003°22'0 0.1
2014-Apr-11 08:31N 51°49' E 003°22'0 0.0
2014-Apr-11 07:28N 51°49' E 003°22'0 0.0
2014-Apr-11 06:28N 51°49' E 003°22'0 0.0
2014-Apr-11 05:22N 51°49' E 003°22'0 0.0
2014-Apr-11 04:31N 51°49' E 003°22'0 0.0
2014-Apr-11 03:22N 51°49' E 003°22'0 0.1
2014-Apr-11 02:31N 51°49' E 003°22'0 0.0
2014-Apr-11 01:28N 51°49' E 003°22'0 0.0
2014-Apr-11 00:25N 51°49' E 003°22'0 0.0
2014-Apr-10 23:25N 51°49' E 003°22'0 0.0
2014-Apr-10 22:16N 51°49' E 003°22'0 0.0
2014-Apr-10 21:31N 51°49' E 003°23'0 0.1
2014-Apr-10 20:31N 51°49' E 003°22'0 0.0
2014-Apr-10 19:22N 51°49' E 003°22'0 0.0
2014-Apr-10 18:28N 51°49' E 003°22'0 0.0
2014-Apr-10 17:04N 51°49' E 003°22'0 0.0
2014-Apr-10 16:31N 51°49' E 003°22'0 0.0
2014-Apr-10 15:31N 51°49' E 003°22'0 0.1
2014-Apr-10 14:28N 51°49' E 003°23'0 0.1
2014-Apr-10 13:28N 51°49' E 003°22'0 0.0
2014-Apr-10 12:28N 51°49' E 003°22'0 0.0
2014-Apr-10 11:31N 51°49' E 003°22'0 0.0
2014-Apr-10 10:31N 51°49' E 003°22'0 0.0
2014-Apr-10 05:10N 51°49' E 003°22'0 0.1
2014-Apr-10 03:19N 51°49' E 003°23'0 0.0
2014-Apr-10 02:13N 51°49' E 003°23'0 0.0
2014-Apr-10 01:33N 51°49' E 003°22'8 6.9
2014-Apr-10 00:24N 51°42' E 003°18'1214.5
2014-Apr-09 23:33N 51°31' E 003°27'1010.4
2014-Apr-09 22:33N 51°26' E 003°42'1010.0
2014-Apr-09 21:33N 51°24' E 003°57'8 7.6
2014-Apr-09 20:34N 51°23' E 004°09'5 5.5
2014-Apr-09 19:33N 51°21' E 004°17'1 1.5
2014-Apr-09 18:33N 51°19' E 004°19'5 4.5
2014-Apr-09 17:30N 51°15' E 004°22'0 0.2
2014-Apr-09 16:33N 51°15' E 004°23'0 0.0
2014-Apr-09 15:33N 51°15' E 004°23'0 0.0
2014-Apr-09 14:33N 51°15' E 004°23'0 0.0
2014-Apr-09 13:33N 51°15' E 004°23'0 0.0
2014-Apr-09 12:30N 51°15' E 004°23'0 0.0
2014-Apr-09 11:33N 51°15' E 004°23'3 2.9
2014-Apr-09 10:33N 51°18' E 004°20'0 0.0
2014-Apr-09 09:30N 51°18' E 004°20'0 0.0
2014-Apr-09 08:06N 51°18' E 004°20'0 0.0
2014-Apr-09 07:24N 51°18' E 004°20'0 0.0
2014-Apr-09 04:24N 51°18' E 004°20'0 0.0
2014-Apr-09 03:33N 51°18' E 004°20'0 0.0
2014-Apr-09 02:33N 51°18' E 004°20'0 0.0
2014-Apr-09 01:30N 51°18' E 004°20'0 0.0
2014-Apr-09 00:33N 51°18' E 004°20'0 0.0
2014-Apr-08 21:23N 51°18' E 004°20'0 0.0
2014-Apr-08 20:33N 51°18' E 004°20'0 0.0
2014-Apr-08 19:33N 51°18' E 004°20'0 0.0
2014-Apr-08 18:33N 51°18' E 004°20'0 0.0
2014-Apr-08 17:33N 51°18' E 004°20'0 0.0
2014-Apr-08 16:33N 51°18' E 004°20'0 0.0
2014-Apr-08 15:33N 51°18' E 004°20'0 0.0
2014-Apr-08 14:33N 51°18' E 004°20'1 0.9
2014-Apr-08 13:34N 51°17' E 004°20'0 0.5
2014-Apr-08 12:34N 51°17' E 004°19'7 7.0
2014-Apr-08 11:33N 51°23' E 004°13'7 7.3
2014-Apr-08 10:34N 51°25' E 004°02'8 8.0
2014-Apr-08 09:33N 51°21' E 003°51'1010.1
2014-Apr-08 08:33N 51°26' E 003°37'8 7.6
2014-Apr-08 07:34N 51°30' E 003°27'1211.6
2014-Apr-08 06:33N 51°41' E 003°18'5 3.8
2014-Apr-08 05:20N 51°45' E 003°18'0 0.0
2014-Apr-08 04:29N 51°45' E 003°18'0 0.1
2014-Apr-08 02:29N 51°45' E 003°18'1010.9
2014-Apr-08 01:32N 51°46' E 003°02'197 9.4
2014-Apr-07 04:33N 54°11' E 006°43'1212.1
2014-Apr-07 03:33N 54°12' E 007°04'1111.4
2014-Apr-07 02:33N 54°12' E 007°23'1110.7
2014-Apr-07 01:33N 54°09' E 007°41'1111.3
2014-Apr-07 00:34N 54°04' E 007°58'1010.1
2014-Apr-06 23:33N 54°00' E 008°14'1212.4
2014-Apr-06 22:34N 53°58' E 008°35'1313.4
2014-Apr-06 21:33N 53°51' E 008°54'9 9.1
2014-Apr-06 20:33N 53°54' E 009°09'1 0.8
2014-Apr-06 19:33N 53°54' E 009°10'6 6.0
2014-Apr-06 18:33N 53°59' E 009°16'8 8.3
2014-Apr-06 17:33N 54°07' E 009°20'6 5.8
2014-Apr-06 16:33N 54°11' E 009°27'4 3.7
2014-Apr-06 15:32N 54°12' E 009°33'  

Dump ship's entire track history

sailing weather and tide predictions

Fure West — OZ2100 — position and weather